sensor_id;sensor_type;location;lat;lon;timestamp;temperature;humidity
22769;DHT22;13001;51.968;5.918;2024-01-25T00:00:21;8.10;99.90
22769;DHT22;13001;51.968;5.918;2024-01-25T00:02:48;8.10;99.90
22769;DHT22;13001;51.968;5.918;2024-01-25T00:05:16;8.00;99.90
22769;DHT22;13001;51.968;5.918;2024-01-25T00:07:48;7.90;99.90
22769;DHT22;13001;51.968;5.918;2024-01-25T00:10:17;7.80;99.90
22769;DHT22;13001;51.968;5.918;2024-01-25T00:12:45;7.70;99.90
22769;DHT22;13001;51.968;5.918;2024-01-25T00:15:13;7.60;99.90
22769;DHT22;13001;51.968;5.918;2024-01-25T00:17:42;7.50;99.90
22769;DHT22;13001;51.968;5.918;2024-01-25T00:20:10;7.50;99.90
22769;DHT22;13001;51.968;5.918;2024-01-25T00:22:38;7.40;99.90
22769;DHT22;13001;51.968;5.918;2024-01-25T00:25:05;7.30;99.90
22769;DHT22;13001;51.968;5.918;2024-01-25T00:27:33;7.30;99.90
22769;DHT22;13001;51.968;5.918;2024-01-25T00:30:07;7.20;99.90
22769;DHT22;13001;51.968;5.918;2024-01-25T00:32:34;7.20;99.90
22769;DHT22;13001;51.968;5.918;2024-01-25T00:35:03;7.10;99.90
22769;DHT22;13001;51.968;5.918;2024-01-25T00:37:30;7.10;99.90
22769;DHT22;13001;51.968;5.918;2024-01-25T00:39:58;7.00;99.90
22769;DHT22;13001;51.968;5.918;2024-01-25T00:42:26;7.00;99.90
22769;DHT22;13001;51.968;5.918;2024-01-25T00:44:53;6.90;99.90
22769;DHT22;13001;51.968;5.918;2024-01-25T00:47:21;6.80;99.90
22769;DHT22;13001;51.968;5.918;2024-01-25T00:49:49;6.80;99.90
22769;DHT22;13001;51.968;5.918;2024-01-25T00:52:17;6.80;99.90
22769;DHT22;13001;51.968;5.918;2024-01-25T00:54:44;6.80;99.90
22769;DHT22;13001;51.968;5.918;2024-01-25T00:57:21;6.70;99.90
22769;DHT22;13001;51.968;5.918;2024-01-25T00:59:49;6.70;99.90
22769;DHT22;13001;51.968;5.918;2024-01-25T01:02:17;6.70;99.90
22769;DHT22;13001;51.968;5.918;2024-01-25T01:04:44;6.60;99.90
22769;DHT22;13001;51.968;5.918;2024-01-25T01:07:12;6.60;99.90
22769;DHT22;13001;51.968;5.918;2024-01-25T01:09:41;6.60;99.90
22769;DHT22;13001;51.968;5.918;2024-01-25T01:12:08;6.60;99.90
22769;DHT22;13001;51.968;5.918;2024-01-25T01:14:36;6.50;99.90
22769;DHT22;13001;51.968;5.918;2024-01-25T01:17:03;6.50;99.90
22769;DHT22;13001;51.968;5.918;2024-01-25T01:19:32;6.50;99.90
22769;DHT22;13001;51.968;5.918;2024-01-25T01:22:00;6.40;99.90
22769;DHT22;13001;51.968;5.918;2024-01-25T01:24:27;6.50;99.90
22769;DHT22;13001;51.968;5.918;2024-01-25T01:26:55;6.40;99.90
22769;DHT22;13001;51.968;5.918;2024-01-25T01:29:22;6.40;99.90
22769;DHT22;13001;51.968;5.918;2024-01-25T01:31:50;6.30;99.90
22769;DHT22;13001;51.968;5.918;2024-01-25T01:34:17;6.30;99.90
22769;DHT22;13001;51.968;5.918;2024-01-25T01:36:45;6.30;99.90
22769;DHT22;13001;51.968;5.918;2024-01-25T01:39:12;6.20;99.90
22769;DHT22;13001;51.968;5.918;2024-01-25T01:41:40;6.20;99.90
22769;DHT22;13001;51.968;5.918;2024-01-25T01:44:08;6.20;99.90
22769;DHT22;13001;51.968;5.918;2024-01-25T01:46:54;6.20;99.90
22769;DHT22;13001;51.968;5.918;2024-01-25T01:49:22;6.20;99.90
22769;DHT22;13001;51.968;5.918;2024-01-25T01:51:50;6.20;99.90
22769;DHT22;13001;51.968;5.918;2024-01-25T01:54:18;6.20;99.90
22769;DHT22;13001;51.968;5.918;2024-01-25T01:56:46;6.10;99.90
22769;DHT22;13001;51.968;5.918;2024-01-25T01:59:15;6.10;99.90
22769;DHT22;13001;51.968;5.918;2024-01-25T02:01:43;6.00;99.90
22769;DHT22;13001;51.968;5.918;2024-01-25T02:04:11;6.00;99.90
22769;DHT22;13001;51.968;5.918;2024-01-25T02:06:39;6.00;99.90
22769;DHT22;13001;51.968;5.918;2024-01-25T02:09:07;5.90;99.90
22769;DHT22;13001;51.968;5.918;2024-01-25T02:11:34;5.90;99.90
22769;DHT22;13001;51.968;5.918;2024-01-25T02:14:02;5.90;99.90
22769;DHT22;13001;51.968;5.918;2024-01-25T02:16:29;5.90;99.90
22769;DHT22;13001;51.968;5.918;2024-01-25T02:18:57;5.80;99.90
22769;DHT22;13001;51.968;5.918;2024-01-25T02:21:24;5.80;99.90
22769;DHT22;13001;51.968;5.918;2024-01-25T02:23:52;5.80;99.90
22769;DHT22;13001;51.968;5.918;2024-01-25T02:26:19;5.80;99.90
22769;DHT22;13001;51.968;5.918;2024-01-25T02:28:47;5.80;99.90
22769;DHT22;13001;51.968;5.918;2024-01-25T02:31:14;5.80;99.90
22769;DHT22;13001;51.968;5.918;2024-01-25T02:33:42;5.80;99.90
22769;DHT22;13001;51.968;5.918;2024-01-25T02:36:09;5.70;99.90
22769;DHT22;13001;51.968;5.918;2024-01-25T02:38:37;5.70;99.90
22769;DHT22;13001;51.968;5.918;2024-01-25T02:41:04;5.70;99.90
22769;DHT22;13001;51.968;5.918;2024-01-25T02:43:32;5.60;99.90
22769;DHT22;13001;51.968;5.918;2024-01-25T02:46:01;5.60;99.90
22769;DHT22;13001;51.968;5.918;2024-01-25T02:48:28;5.60;99.90
22769;DHT22;13001;51.968;5.918;2024-01-25T02:50:56;5.50;99.90
22769;DHT22;13001;51.968;5.918;2024-01-25T02:53:23;5.50;99.90
22769;DHT22;13001;51.968;5.918;2024-01-25T02:55:51;5.50;99.90
22769;DHT22;13001;51.968;5.918;2024-01-25T02:58:18;5.40;99.90
22769;DHT22;13001;51.968;5.918;2024-01-25T03:00:47;5.40;99.90
22769;DHT22;13001;51.968;5.918;2024-01-25T03:03:14;5.40;99.90
22769;DHT22;13001;51.968;5.918;2024-01-25T03:05:42;5.60;99.90
22769;DHT22;13001;51.968;5.918;2024-01-25T03:08:10;5.70;99.90
22769;DHT22;13001;51.968;5.918;2024-01-25T03:10:37;5.80;99.90
22769;DHT22;13001;51.968;5.918;2024-01-25T03:13:05;5.90;99.90
22769;DHT22;13001;51.968;5.918;2024-01-25T03:15:32;6.00;99.90
22769;DHT22;13001;51.968;5.918;2024-01-25T03:18:00;6.00;99.90
22769;DHT22;13001;51.968;5.918;2024-01-25T03:20:27;6.10;99.90
22769;DHT22;13001;51.968;5.918;2024-01-25T03:22:55;6.00;99.90
22769;DHT22;13001;51.968;5.918;2024-01-25T03:25:22;5.90;99.90
22769;DHT22;13001;51.968;5.918;2024-01-25T03:27:50;5.80;99.90
22769;DHT22;13001;51.968;5.918;2024-01-25T03:30:17;5.70;99.90
22769;DHT22;13001;51.968;5.918;2024-01-25T03:32:46;5.70;99.90
22769;DHT22;13001;51.968;5.918;2024-01-25T03:35:17;5.80;99.90
22769;DHT22;13001;51.968;5.918;2024-01-25T03:37:44;5.90;99.90
22769;DHT22;13001;51.968;5.918;2024-01-25T03:40:12;6.00;99.90
22769;DHT22;13001;51.968;5.918;2024-01-25T03:42:39;6.00;99.90
22769;DHT22;13001;51.968;5.918;2024-01-25T03:45:07;6.00;99.90
22769;DHT22;13001;51.968;5.918;2024-01-25T03:47:35;6.10;99.90
22769;DHT22;13001;51.968;5.918;2024-01-25T03:50:02;6.10;99.90
22769;DHT22;13001;51.968;5.918;2024-01-25T03:52:30;6.10;99.90
22769;DHT22;13001;51.968;5.918;2024-01-25T03:54:57;6.10;99.90
22769;DHT22;13001;51.968;5.918;2024-01-25T03:57:25;6.00;99.90
22769;DHT22;13001;51.968;5.918;2024-01-25T03:59:52;6.00;99.90
22769;DHT22;13001;51.968;5.918;2024-01-25T04:02:20;6.00;99.90
22769;DHT22;13001;51.968;5.918;2024-01-25T04:04:47;6.00;99.90
22769;DHT22;13001;51.968;5.918;2024-01-25T04:07:16;6.00;99.90
22769;DHT22;13001;51.968;5.918;2024-01-25T04:09:43;6.00;99.90
22769;DHT22;13001;51.968;5.918;2024-01-25T04:12:12;6.00;99.90
22769;DHT22;13001;51.968;5.918;2024-01-25T04:14:39;6.00;99.90
22769;DHT22;13001;51.968;5.918;2024-01-25T04:17:07;6.10;99.90
22769;DHT22;13001;51.968;5.918;2024-01-25T04:19:36;6.00;99.90
22769;DHT22;13001;51.968;5.918;2024-01-25T04:22:04;6.10;99.90
22769;DHT22;13001;51.968;5.918;2024-01-25T04:24:31;6.00;99.90
22769;DHT22;13001;51.968;5.918;2024-01-25T04:26:59;6.00;99.90
22769;DHT22;13001;51.968;5.918;2024-01-25T04:29:28;6.00;99.90
22769;DHT22;13001;51.968;5.918;2024-01-25T04:31:55;6.00;99.90
22769;DHT22;13001;51.968;5.918;2024-01-25T04:34:23;6.00;99.90
22769;DHT22;13001;51.968;5.918;2024-01-25T04:36:50;6.00;99.90
22769;DHT22;13001;51.968;5.918;2024-01-25T04:39:18;6.00;99.90
22769;DHT22;13001;51.968;5.918;2024-01-25T04:41:45;6.00;99.90
22769;DHT22;13001;51.968;5.918;2024-01-25T04:44:13;6.00;99.90
22769;DHT22;13001;51.968;5.918;2024-01-25T04:46:42;6.00;99.90
22769;DHT22;13001;51.968;5.918;2024-01-25T04:49:10;5.90;99.90
22769;DHT22;13001;51.968;5.918;2024-01-25T04:51:37;5.90;99.90
22769;DHT22;13001;51.968;5.918;2024-01-25T04:54:05;5.90;99.90
22769;DHT22;13001;51.968;5.918;2024-01-25T04:56:34;5.80;99.90
22769;DHT22;13001;51.968;5.918;2024-01-25T04:59:02;5.80;99.90
22769;DHT22;13001;51.968;5.918;2024-01-25T05:01:30;5.80;99.90
22769;DHT22;13001;51.968;5.918;2024-01-25T05:03:57;5.80;99.90
22769;DHT22;13001;51.968;5.918;2024-01-25T05:06:25;5.70;99.90
22769;DHT22;13001;51.968;5.918;2024-01-25T05:08:53;5.70;99.90
22769;DHT22;13001;51.968;5.918;2024-01-25T05:11:20;5.70;99.90
22769;DHT22;13001;51.968;5.918;2024-01-25T05:13:48;5.70;99.90
22769;DHT22;13001;51.968;5.918;2024-01-25T05:16:15;5.70;99.90
22769;DHT22;13001;51.968;5.918;2024-01-25T05:18:43;5.70;99.90
22769;DHT22;13001;51.968;5.918;2024-01-25T05:21:10;5.70;99.90
22769;DHT22;13001;51.968;5.918;2024-01-25T05:23:38;5.60;99.90
22769;DHT22;13001;51.968;5.918;2024-01-25T05:26:06;5.60;99.90
22769;DHT22;13001;51.968;5.918;2024-01-25T05:28:34;5.60;99.90
22769;DHT22;13001;51.968;5.918;2024-01-25T05:31:01;5.60;99.90
22769;DHT22;13001;51.968;5.918;2024-01-25T05:33:29;5.50;99.90
22769;DHT22;13001;51.968;5.918;2024-01-25T05:35:56;5.50;99.90
22769;DHT22;13001;51.968;5.918;2024-01-25T05:38:23;5.50;99.90
22769;DHT22;13001;51.968;5.918;2024-01-25T05:40:51;5.40;99.90
22769;DHT22;13001;51.968;5.918;2024-01-25T05:43:19;5.40;99.90
22769;DHT22;13001;51.968;5.918;2024-01-25T05:45:46;5.40;99.90
22769;DHT22;13001;51.968;5.918;2024-01-25T05:48:14;5.40;99.90
22769;DHT22;13001;51.968;5.918;2024-01-25T05:50:41;5.40;99.90
22769;DHT22;13001;51.968;5.918;2024-01-25T05:53:09;5.40;99.90
22769;DHT22;13001;51.968;5.918;2024-01-25T05:55:36;5.30;99.90
22769;DHT22;13001;51.968;5.918;2024-01-25T05:58:03;5.20;99.90
22769;DHT22;13001;51.968;5.918;2024-01-25T06:00:29;5.00;99.90
22769;DHT22;13001;51.968;5.918;2024-01-25T06:02:56;4.90;99.90
22769;DHT22;13001;51.968;5.918;2024-01-25T06:05:23;4.70;99.90
22769;DHT22;13001;51.968;5.918;2024-01-25T06:07:50;4.60;99.90
22769;DHT22;13001;51.968;5.918;2024-01-25T06:10:17;4.50;99.90
22769;DHT22;13001;51.968;5.918;2024-01-25T06:12:44;4.40;99.90
22769;DHT22;13001;51.968;5.918;2024-01-25T06:15:10;4.40;99.90
22769;DHT22;13001;51.968;5.918;2024-01-25T06:17:37;4.30;99.90
22769;DHT22;13001;51.968;5.918;2024-01-25T06:20:04;4.20;99.90
22769;DHT22;13001;51.968;5.918;2024-01-25T06:22:31;4.10;99.90
22769;DHT22;13001;51.968;5.918;2024-01-25T06:24:58;4.10;99.90
22769;DHT22;13001;51.968;5.918;2024-01-25T06:27:24;4.00;99.90
22769;DHT22;13001;51.968;5.918;2024-01-25T06:29:52;4.00;99.90
22769;DHT22;13001;51.968;5.918;2024-01-25T06:32:18;4.00;99.90
22769;DHT22;13001;51.968;5.918;2024-01-25T06:34:45;4.00;99.90
22769;DHT22;13001;51.968;5.918;2024-01-25T06:37:12;3.90;99.90
22769;DHT22;13001;51.968;5.918;2024-01-25T06:39:40;3.90;99.90
22769;DHT22;13001;51.968;5.918;2024-01-25T06:42:07;3.90;99.90
22769;DHT22;13001;51.968;5.918;2024-01-25T06:44:34;3.80;99.90
22769;DHT22;13001;51.968;5.918;2024-01-25T06:47:01;3.80;99.90
22769;DHT22;13001;51.968;5.918;2024-01-25T06:49:28;3.80;99.90
22769;DHT22;13001;51.968;5.918;2024-01-25T06:51:54;3.80;99.90
22769;DHT22;13001;51.968;5.918;2024-01-25T06:54:21;3.80;99.90
22769;DHT22;13001;51.968;5.918;2024-01-25T06:56:48;3.80;99.90
22769;DHT22;13001;51.968;5.918;2024-01-25T06:59:17;3.80;99.90
22769;DHT22;13001;51.968;5.918;2024-01-25T07:01:44;3.80;99.90
22769;DHT22;13001;51.968;5.918;2024-01-25T07:04:10;3.80;99.90
22769;DHT22;13001;51.968;5.918;2024-01-25T07:06:38;3.80;99.90
22769;DHT22;13001;51.968;5.918;2024-01-25T07:09:04;3.80;99.90
22769;DHT22;13001;51.968;5.918;2024-01-25T07:11:31;3.80;99.90
22769;DHT22;13001;51.968;5.918;2024-01-25T07:13:58;3.90;99.90
22769;DHT22;13001;51.968;5.918;2024-01-25T07:16:25;3.90;99.90
22769;DHT22;13001;51.968;5.918;2024-01-25T07:18:52;4.00;99.90
22769;DHT22;13001;51.968;5.918;2024-01-25T07:21:20;4.10;99.90
22769;DHT22;13001;51.968;5.918;2024-01-25T07:23:47;4.10;99.90
22769;DHT22;13001;51.968;5.918;2024-01-25T07:26:17;4.20;99.90
22769;DHT22;13001;51.968;5.918;2024-01-25T07:28:44;4.20;99.90
22769;DHT22;13001;51.968;5.918;2024-01-25T07:31:12;4.30;99.90
22769;DHT22;13001;51.968;5.918;2024-01-25T07:33:39;4.30;99.90
22769;DHT22;13001;51.968;5.918;2024-01-25T07:36:05;4.30;99.90
22769;DHT22;13001;51.968;5.918;2024-01-25T07:38:32;4.30;99.90
22769;DHT22;13001;51.968;5.918;2024-01-25T07:40:59;4.30;99.90
22769;DHT22;13001;51.968;5.918;2024-01-25T07:43:26;4.30;99.90
22769;DHT22;13001;51.968;5.918;2024-01-25T07:45:53;4.30;99.90
22769;DHT22;13001;51.968;5.918;2024-01-25T07:48:19;4.40;99.90
22769;DHT22;13001;51.968;5.918;2024-01-25T07:50:46;4.40;99.90
22769;DHT22;13001;51.968;5.918;2024-01-25T07:53:13;4.50;99.90
22769;DHT22;13001;51.968;5.918;2024-01-25T07:55:42;4.50;99.90
22769;DHT22;13001;51.968;5.918;2024-01-25T07:58:08;4.60;99.90
22769;DHT22;13001;51.968;5.918;2024-01-25T08:00:36;4.70;99.90
22769;DHT22;13001;51.968;5.918;2024-01-25T08:03:02;4.80;99.90
22769;DHT22;13001;51.968;5.918;2024-01-25T08:05:29;4.80;99.90
22769;DHT22;13001;51.968;5.918;2024-01-25T08:07:56;4.90;99.90
22769;DHT22;13001;51.968;5.918;2024-01-25T08:10:23;5.00;99.90
22769;DHT22;13001;51.968;5.918;2024-01-25T08:12:50;5.10;99.90
22769;DHT22;13001;51.968;5.918;2024-01-25T08:15:17;5.20;99.90
22769;DHT22;13001;51.968;5.918;2024-01-25T08:17:43;5.30;99.90
22769;DHT22;13001;51.968;5.918;2024-01-25T08:20:10;5.30;99.90
22769;DHT22;13001;51.968;5.918;2024-01-25T08:22:44;5.40;99.90
22769;DHT22;13001;51.968;5.918;2024-01-25T08:25:07;5.60;99.90
22769;DHT22;13001;51.968;5.918;2024-01-25T08:27:35;5.70;99.90
22769;DHT22;13001;51.968;5.918;2024-01-25T08:30:02;5.80;99.90
22769;DHT22;13001;51.968;5.918;2024-01-25T08:32:29;5.90;99.90
22769;DHT22;13001;51.968;5.918;2024-01-25T08:34:56;6.10;99.90
22769;DHT22;13001;51.968;5.918;2024-01-25T08:37:23;6.20;99.90
22769;DHT22;13001;51.968;5.918;2024-01-25T08:39:49;6.40;99.90
22769;DHT22;13001;51.968;5.918;2024-01-25T08:42:17;6.60;99.90
22769;DHT22;13001;51.968;5.918;2024-01-25T08:44:44;6.70;99.90
22769;DHT22;13001;51.968;5.918;2024-01-25T08:47:12;6.90;99.90
22769;DHT22;13001;51.968;5.918;2024-01-25T08:49:39;6.90;99.90
22769;DHT22;13001;51.968;5.918;2024-01-25T08:52:06;7.00;99.90
22769;DHT22;13001;51.968;5.918;2024-01-25T08:54:33;7.10;99.90
22769;DHT22;13001;51.968;5.918;2024-01-25T08:57:01;7.30;99.90
22769;DHT22;13001;51.968;5.918;2024-01-25T08:59:28;7.60;99.90
22769;DHT22;13001;51.968;5.918;2024-01-25T09:01:57;7.90;99.90
22769;DHT22;13001;51.968;5.918;2024-01-25T09:04:25;8.20;99.90
22769;DHT22;13001;51.968;5.918;2024-01-25T09:06:52;8.50;99.90
22769;DHT22;13001;51.968;5.918;2024-01-25T09:09:19;9.00;99.90
22769;DHT22;13001;51.968;5.918;2024-01-25T09:11:47;9.50;99.90
22769;DHT22;13001;51.968;5.918;2024-01-25T09:14:15;9.90;99.90
22769;DHT22;13001;51.968;5.918;2024-01-25T09:16:42;10.20;99.90
22769;DHT22;13001;51.968;5.918;2024-01-25T09:19:10;10.40;99.90
22769;DHT22;13001;51.968;5.918;2024-01-25T09:21:40;10.60;99.90
22769;DHT22;13001;51.968;5.918;2024-01-25T09:24:08;10.70;99.90
22769;DHT22;13001;51.968;5.918;2024-01-25T09:26:35;10.80;99.90
22769;DHT22;13001;51.968;5.918;2024-01-25T09:29:03;11.10;99.90
22769;DHT22;13001;51.968;5.918;2024-01-25T09:31:31;11.30;99.90
22769;DHT22;13001;51.968;5.918;2024-01-25T09:34:03;11.40;99.90
22769;DHT22;13001;51.968;5.918;2024-01-25T09:36:30;11.30;99.90
22769;DHT22;13001;51.968;5.918;2024-01-25T09:38:58;11.20;99.90
22769;DHT22;13001;51.968;5.918;2024-01-25T09:41:25;11.00;99.90
22769;DHT22;13001;51.968;5.918;2024-01-25T09:43:53;10.90;99.90
22769;DHT22;13001;51.968;5.918;2024-01-25T09:46:20;10.70;99.90
22769;DHT22;13001;51.968;5.918;2024-01-25T09:48:49;10.60;99.90
22769;DHT22;13001;51.968;5.918;2024-01-25T09:51:17;10.60;99.90
22769;DHT22;13001;51.968;5.918;2024-01-25T09:53:46;10.50;99.90
22769;DHT22;13001;51.968;5.918;2024-01-25T09:56:15;10.50;99.90
22769;DHT22;13001;51.968;5.918;2024-01-25T09:58:44;10.40;99.90
22769;DHT22;13001;51.968;5.918;2024-01-25T10:01:13;10.20;99.90
22769;DHT22;13001;51.968;5.918;2024-01-25T10:03:47;10.10;99.90
22769;DHT22;13001;51.968;5.918;2024-01-25T10:06:16;10.00;99.90
22769;DHT22;13001;51.968;5.918;2024-01-25T10:08:44;9.90;99.90
22769;DHT22;13001;51.968;5.918;2024-01-25T10:11:13;9.90;99.90
22769;DHT22;13001;51.968;5.918;2024-01-25T10:13:46;10.00;99.90
22769;DHT22;13001;51.968;5.918;2024-01-25T10:16:15;10.00;99.90
22769;DHT22;13001;51.968;5.918;2024-01-25T10:18:43;10.10;99.90
22769;DHT22;13001;51.968;5.918;2024-01-25T10:21:12;10.00;99.90
22769;DHT22;13001;51.968;5.918;2024-01-25T10:23:40;10.10;99.90
22769;DHT22;13001;51.968;5.918;2024-01-25T10:26:08;10.10;99.90
22769;DHT22;13001;51.968;5.918;2024-01-25T10:28:36;10.20;99.90
22769;DHT22;13001;51.968;5.918;2024-01-25T10:31:04;10.20;99.90
22769;DHT22;13001;51.968;5.918;2024-01-25T10:33:33;10.40;99.90
22769;DHT22;13001;51.968;5.918;2024-01-25T10:36:01;10.50;99.90
22769;DHT22;13001;51.968;5.918;2024-01-25T10:38:31;10.60;99.90
22769;DHT22;13001;51.968;5.918;2024-01-25T10:41:01;10.70;99.90
22769;DHT22;13001;51.968;5.918;2024-01-25T10:43:29;10.90;99.90
22769;DHT22;13001;51.968;5.918;2024-01-25T10:46:00;11.00;99.90
22769;DHT22;13001;51.968;5.918;2024-01-25T10:48:28;11.00;99.90
22769;DHT22;13001;51.968;5.918;2024-01-25T10:50:56;11.10;99.90
22769;DHT22;13001;51.968;5.918;2024-01-25T10:53:27;11.20;99.90
22769;DHT22;13001;51.968;5.918;2024-01-25T10:55:56;11.30;99.90
22769;DHT22;13001;51.968;5.918;2024-01-25T10:58:24;11.40;99.90
22769;DHT22;13001;51.968;5.918;2024-01-25T11:00:57;11.40;99.90
22769;DHT22;13001;51.968;5.918;2024-01-25T11:03:28;11.40;99.90
22769;DHT22;13001;51.968;5.918;2024-01-25T11:06:08;11.40;99.90
22769;DHT22;13001;51.968;5.918;2024-01-25T11:08:39;11.50;99.90
22769;DHT22;13001;51.968;5.918;2024-01-25T11:11:13;11.50;99.90
22769;DHT22;13001;51.968;5.918;2024-01-25T11:13:44;11.50;99.90
22769;DHT22;13001;51.968;5.918;2024-01-25T11:16:19;11.60;99.90
22769;DHT22;13001;51.968;5.918;2024-01-25T11:18:54;11.70;99.90
22769;DHT22;13001;51.968;5.918;2024-01-25T11:24:20;11.90;99.90
22769;DHT22;13001;51.968;5.918;2024-01-25T11:26:48;12.10;99.90
22769;DHT22;13001;51.968;5.918;2024-01-25T11:29:17;12.20;99.90
22769;DHT22;13001;51.968;5.918;2024-01-25T11:31:45;12.10;99.90
22769;DHT22;13001;51.968;5.918;2024-01-25T11:34:14;12.10;99.90
22769;DHT22;13001;51.968;5.918;2024-01-25T11:36:49;12.00;99.90
22769;DHT22;13001;51.968;5.918;2024-01-25T11:39:17;12.00;99.90
22769;DHT22;13001;51.968;5.918;2024-01-25T11:41:45;12.00;99.90
22769;DHT22;13001;51.968;5.918;2024-01-25T11:44:14;11.90;99.90
22769;DHT22;13001;51.968;5.918;2024-01-25T11:46:44;11.90;99.90
22769;DHT22;13001;51.968;5.918;2024-01-25T11:49:11;11.90;99.90
22769;DHT22;13001;51.968;5.918;2024-01-25T11:51:39;12.00;99.90
22769;DHT22;13001;51.968;5.918;2024-01-25T11:54:06;12.10;99.90
22769;DHT22;13001;51.968;5.918;2024-01-25T11:56:37;12.10;99.90
22769;DHT22;13001;51.968;5.918;2024-01-25T11:59:07;12.10;99.90
22769;DHT22;13001;51.968;5.918;2024-01-25T12:01:35;12.10;99.90
22769;DHT22;13001;51.968;5.918;2024-01-25T12:04:05;12.00;99.90
22769;DHT22;13001;51.968;5.918;2024-01-25T12:06:33;12.00;99.90
22769;DHT22;13001;51.968;5.918;2024-01-25T12:09:12;11.90;99.90
22769;DHT22;13001;51.968;5.918;2024-01-25T12:11:38;11.80;99.90
22769;DHT22;13001;51.968;5.918;2024-01-25T12:14:05;11.70;99.90
22769;DHT22;13001;51.968;5.918;2024-01-25T12:16:34;11.60;99.90
22769;DHT22;13001;51.968;5.918;2024-01-25T12:19:03;11.50;99.90
22769;DHT22;13001;51.968;5.918;2024-01-25T12:21:32;11.40;99.90
22769;DHT22;13001;51.968;5.918;2024-01-25T12:24:02;11.40;99.90
22769;DHT22;13001;51.968;5.918;2024-01-25T12:26:33;11.40;99.90
22769;DHT22;13001;51.968;5.918;2024-01-25T12:29:00;11.40;99.90
22769;DHT22;13001;51.968;5.918;2024-01-25T12:31:28;11.30;99.90
22769;DHT22;13001;51.968;5.918;2024-01-25T12:33:55;11.30;99.90
22769;DHT22;13001;51.968;5.918;2024-01-25T12:36:23;11.30;99.90
22769;DHT22;13001;51.968;5.918;2024-01-25T12:38:51;11.30;99.90
22769;DHT22;13001;51.968;5.918;2024-01-25T12:41:18;11.20;99.90
22769;DHT22;13001;51.968;5.918;2024-01-25T12:43:46;11.20;99.90
22769;DHT22;13001;51.968;5.918;2024-01-25T12:46:13;11.10;99.90
22769;DHT22;13001;51.968;5.918;2024-01-25T12:48:41;11.00;99.90
22769;DHT22;13001;51.968;5.918;2024-01-25T12:51:09;10.90;99.90
22769;DHT22;13001;51.968;5.918;2024-01-25T12:53:37;10.80;99.90
22769;DHT22;13001;51.968;5.918;2024-01-25T12:56:05;10.90;99.90
22769;DHT22;13001;51.968;5.918;2024-01-25T12:58:33;11.00;99.90
22769;DHT22;13001;51.968;5.918;2024-01-25T13:01:00;11.20;99.90
22769;DHT22;13001;51.968;5.918;2024-01-25T13:03:28;11.30;99.90
22769;DHT22;13001;51.968;5.918;2024-01-25T13:05:56;11.50;99.90
22769;DHT22;13001;51.968;5.918;2024-01-25T13:08:24;11.60;99.90
22769;DHT22;13001;51.968;5.918;2024-01-25T13:10:51;11.60;99.90
22769;DHT22;13001;51.968;5.918;2024-01-25T13:13:19;11.70;99.90
22769;DHT22;13001;51.968;5.918;2024-01-25T13:15:47;11.70;99.90
22769;DHT22;13001;51.968;5.918;2024-01-25T13:18:14;11.60;99.90
22769;DHT22;13001;51.968;5.918;2024-01-25T13:20:42;11.60;99.90
22769;DHT22;13001;51.968;5.918;2024-01-25T13:23:09;11.60;99.90
22769;DHT22;13001;51.968;5.918;2024-01-25T13:25:37;11.50;99.90
22769;DHT22;13001;51.968;5.918;2024-01-25T13:28:06;11.40;99.90
22769;DHT22;13001;51.968;5.918;2024-01-25T13:30:34;11.30;99.90
22769;DHT22;13001;51.968;5.918;2024-01-25T13:33:02;11.10;99.90
22769;DHT22;13001;51.968;5.918;2024-01-25T13:35:30;11.00;99.90
22769;DHT22;13001;51.968;5.918;2024-01-25T13:37:57;11.00;99.90
22769;DHT22;13001;51.968;5.918;2024-01-25T13:40:27;10.90;99.90
22769;DHT22;13001;51.968;5.918;2024-01-25T13:42:56;10.80;99.90
22769;DHT22;13001;51.968;5.918;2024-01-25T13:45:23;10.60;99.90
22769;DHT22;13001;51.968;5.918;2024-01-25T13:47:51;10.60;99.90
22769;DHT22;13001;51.968;5.918;2024-01-25T13:50:18;10.50;99.90
22769;DHT22;13001;51.968;5.918;2024-01-25T13:52:46;10.40;99.90
22769;DHT22;13001;51.968;5.918;2024-01-25T13:55:13;10.30;99.90
22769;DHT22;13001;51.968;5.918;2024-01-25T13:57:41;10.30;99.90
22769;DHT22;13001;51.968;5.918;2024-01-25T14:00:09;10.30;99.90
22769;DHT22;13001;51.968;5.918;2024-01-25T14:02:37;10.30;99.90
22769;DHT22;13001;51.968;5.918;2024-01-25T14:05:05;10.30;99.90
22769;DHT22;13001;51.968;5.918;2024-01-25T14:07:34;10.20;99.90
22769;DHT22;13001;51.968;5.918;2024-01-25T14:10:02;10.20;99.90
22769;DHT22;13001;51.968;5.918;2024-01-25T14:12:29;10.10;99.90
22769;DHT22;13001;51.968;5.918;2024-01-25T14:14:57;10.10;99.90
22769;DHT22;13001;51.968;5.918;2024-01-25T14:17:24;10.10;99.90
22769;DHT22;13001;51.968;5.918;2024-01-25T14:19:54;10.00;99.90
22769;DHT22;13001;51.968;5.918;2024-01-25T14:22:21;10.00;99.90
22769;DHT22;13001;51.968;5.918;2024-01-25T14:24:49;10.00;99.90
22769;DHT22;13001;51.968;5.918;2024-01-25T14:27:18;9.90;99.90
22769;DHT22;13001;51.968;5.918;2024-01-25T14:29:45;9.90;99.90
22769;DHT22;13001;51.968;5.918;2024-01-25T14:32:13;9.80;99.90
22769;DHT22;13001;51.968;5.918;2024-01-25T14:34:40;9.80;99.90
22769;DHT22;13001;51.968;5.918;2024-01-25T14:37:09;9.80;99.90
22769;DHT22;13001;51.968;5.918;2024-01-25T14:39:37;9.70;99.90
22769;DHT22;13001;51.968;5.918;2024-01-25T14:42:09;9.70;99.90
22769;DHT22;13001;51.968;5.918;2024-01-25T14:44:42;9.70;99.90
22769;DHT22;13001;51.968;5.918;2024-01-25T14:47:08;9.70;99.90
22769;DHT22;13001;51.968;5.918;2024-01-25T14:49:36;9.60;99.90
22769;DHT22;13001;51.968;5.918;2024-01-25T14:52:03;9.50;99.90
22769;DHT22;13001;51.968;5.918;2024-01-25T14:54:31;9.50;99.90
22769;DHT22;13001;51.968;5.918;2024-01-25T14:56:58;9.50;99.90
22769;DHT22;13001;51.968;5.918;2024-01-25T14:59:26;9.40;99.90
22769;DHT22;13001;51.968;5.918;2024-01-25T15:01:53;9.40;99.90
22769;DHT22;13001;51.968;5.918;2024-01-25T15:04:21;9.30;99.90
22769;DHT22;13001;51.968;5.918;2024-01-25T15:06:49;9.30;99.90
22769;DHT22;13001;51.968;5.918;2024-01-25T15:09:16;9.30;99.90
22769;DHT22;13001;51.968;5.918;2024-01-25T15:11:44;9.30;99.90
22769;DHT22;13001;51.968;5.918;2024-01-25T15:14:13;9.30;99.90
22769;DHT22;13001;51.968;5.918;2024-01-25T15:16:40;9.30;99.90
22769;DHT22;13001;51.968;5.918;2024-01-25T15:19:10;9.20;99.90
22769;DHT22;13001;51.968;5.918;2024-01-25T15:21:37;9.30;99.90
22769;DHT22;13001;51.968;5.918;2024-01-25T15:24:05;9.20;99.90
22769;DHT22;13001;51.968;5.918;2024-01-25T15:26:32;9.20;99.90
22769;DHT22;13001;51.968;5.918;2024-01-25T15:29:00;9.20;99.90
22769;DHT22;13001;51.968;5.918;2024-01-25T15:31:27;9.20;99.90
22769;DHT22;13001;51.968;5.918;2024-01-25T15:33:55;9.20;99.90
22769;DHT22;13001;51.968;5.918;2024-01-25T15:36:23;9.20;99.90
22769;DHT22;13001;51.968;5.918;2024-01-25T15:38:50;9.20;99.90
22769;DHT22;13001;51.968;5.918;2024-01-25T15:41:18;9.20;99.90
22769;DHT22;13001;51.968;5.918;2024-01-25T15:43:49;9.20;99.90
22769;DHT22;13001;51.968;5.918;2024-01-25T15:46:17;9.20;99.90
22769;DHT22;13001;51.968;5.918;2024-01-25T15:48:44;9.20;99.90